Time;durP1;ratioP1;P1;durP2;ratioP2;P2;SDS_P1;SDS_P2;PMS_P1;PMS_P2;Temp;Humidity;BMP_temperature;BMP_pressure;BME280_temperature;BME280_humidity;BME280_pressure;Samples;Min_cycle;Max_cycle;Signal;HPM_P1;HPM_P2
2023/12/23 00:03:46;;;;;;;5.50;1.30;;;;;;;0.87;70.36;96959.95;218200;1255;140000;-67
2023/12/23 00:08:50;;;;;;;1.80;1.30;;;;;;;0.85;70.23;96960.66;217842;1254;139377;-67
2023/12/23 00:13:54;;;;;;;9.10;1.70;;;;;;;0.82;70.31;96963.96;218979;1253;140723;-67
2023/12/23 00:18:58;;;;;;;4.10;1.20;;;;;;;0.80;70.56;96960.42;217753;1253;140938;-68
2023/12/23 00:24:04;;;;;;;8.50;2.40;;;;;;;0.77;70.45;96962.89;218863;1253;139506;-67
2023/12/23 00:29:09;;;;;;;5.70;1.70;;;;;;;0.73;70.54;96976.04;218685;1253;139553;-66
2023/12/23 00:34:13;;;;;;;4.30;2.00;;;;;;;0.71;70.28;96981.52;220522;1254;139599;-66
2023/12/23 00:39:17;;;;;;;2.40;0.90;;;;;;;0.73;70.67;96991.88;220515;1253;139663;-66
2023/12/23 00:44:22;;;;;;;3.40;2.00;;;;;;;0.74;70.26;96999.85;220553;1252;140380;-66
2023/12/23 00:49:27;;;;;;;4.10;1.60;;;;;;;0.75;70.65;97003.39;218930;1253;139984;-66
2023/12/23 00:54:31;;;;;;;6.00;1.90;;;;;;;0.75;70.53;97003.65;219733;1253;139545;-65
2023/12/23 00:59:35;;;;;;;4.00;1.60;;;;;;;0.76;70.50;97009.85;219528;1253;139487;-66
2023/12/23 01:04:40;;;;;;;6.90;1.00;;;;;;;0.75;70.57;97012.73;219839;1256;142119;-66
2023/12/23 01:09:45;;;;;;;3.20;1.50;;;;;;;0.72;70.47;97019.49;218536;1253;140368;-67
2023/12/23 01:14:50;;;;;;;4.40;1.10;;;;;;;0.66;70.71;97024.23;218277;1253;139528;-67
2023/12/23 01:19:54;;;;;;;1.60;0.90;;;;;;;0.63;70.54;97022.49;218743;1253;141414;-66
2023/12/23 01:24:59;;;;;;;8.70;3.10;;;;;;;0.57;70.62;97024.83;218566;1253;140115;-66
2023/12/23 01:30:04;;;;;;;1.10;0.80;;;;;;;0.51;70.45;97029.33;217886;1256;140218;-66
2023/12/23 01:35:10;;;;;;;5.50;1.20;;;;;;;0.41;70.55;97042.20;217563;1256;139397;-65
2023/12/23 01:40:15;;;;;;;8.80;2.00;;;;;;;0.31;70.68;97041.29;217715;1256;139557;-66
2023/12/23 01:45:19;;;;;;;5.80;1.70;;;;;;;0.24;70.90;97046.10;218004;1253;139981;-67
2023/12/23 01:50:24;;;;;;;8.10;1.60;;;;;;;0.23;71.17;97056.66;219384;1255;139808;-67
2023/12/23 01:55:31;;;;;;;4.30;1.70;;;;;;;0.23;71.15;97054.30;219594;1253;140074;-68
2023/12/23 02:00:37;;;;;;;8.00;1.90;;;;;;;0.24;71.34;97071.91;218059;1256;139536;-67
2023/12/23 02:05:42;;;;;;;1.60;0.90;;;;;;;0.24;71.49;97081.58;217785;1253;140248;-67
2023/12/23 02:10:53;;;;;;;2.60;0.90;;;;;;;0.25;71.56;97089.77;218772;1254;140985;-68
2023/12/23 02:16:00;;;;;;;4.00;1.00;;;;;;;0.26;71.45;97097.66;217840;1253;139724;-67
2023/12/23 02:21:05;;;;;;;11.30;2.90;;;;;;;0.25;71.54;97104.29;217417;1256;140676;-66
2023/12/23 02:26:13;;;;;;;6.20;0.90;;;;;;;0.26;71.55;97102.05;220449;1253;141242;-67
2023/12/23 02:31:20;;;;;;;2.20;0.80;;;;;;;0.24;71.57;97103.99;217932;1254;140042;-67
2023/12/23 02:36:24;;;;;;;4.00;1.30;;;;;;;0.14;71.25;97110.51;217477;1259;139741;-67
2023/12/23 02:41:29;;;;;;;8.60;1.80;;;;;;;0.08;71.49;97124.52;220311;1254;150217;-67
2023/12/23 02:46:33;;;;;;;2.20;1.80;;;;;;;0.07;71.36;97137.70;220334;1254;139831;-67
2023/12/23 02:51:38;;;;;;;5.60;0.90;;;;;;;0.05;71.35;97143.41;219682;1254;141116;-66
2023/12/23 02:56:41;;;;;;;2.60;0.70;;;;;;;0.02;71.44;97142.30;219811;1254;139934;-66
2023/12/23 03:01:46;;;;;;;2.90;0.90;;;;;;;-0.05;71.47;97151.98;218428;1254;139863;-65
2023/12/23 03:06:52;;;;;;;3.10;1.10;;;;;;;-0.10;71.27;97158.98;218588;1256;140506;-64
2023/12/23 03:11:57;;;;;;;3.80;0.80;;;;;;;-0.16;71.54;97164.39;217827;1254;142702;-66
2023/12/23 03:17:00;;;;;;;5.10;1.60;;;;;;;-0.24;71.63;97172.48;217514;1257;139514;-66
2023/12/23 03:22:05;;;;;;;7.70;1.30;;;;;;;-0.32;71.56;97181.39;219307;1257;139859;-66
2023/12/23 03:27:09;;;;;;;4.10;1.30;;;;;;;-0.38;71.69;97187.17;217492;1254;142657;-65
2023/12/23 03:32:15;;;;;;;4.30;1.90;;;;;;;-0.42;71.91;97203.09;218339;1254;140134;-67
2023/12/23 03:37:20;;;;;;;3.80;0.70;;;;;;;-0.44;72.20;97216.65;218857;1254;140797;-66
2023/12/23 03:42:25;;;;;;;2.80;0.80;;;;;;;-0.43;72.12;97226.42;217886;1256;159219;-67
2023/12/23 03:47:30;;;;;;;4.30;1.30;;;;;;;-0.44;72.01;97235.34;218407;1255;139684;-66
2023/12/23 03:52:34;;;;;;;4.10;0.90;;;;;;;-0.47;72.07;97242.47;218477;1254;139888;-66
2023/12/23 03:57:39;;;;;;;1.70;1.10;;;;;;;-0.50;72.16;97240.63;218328;1254;139853;-66
2023/12/23 04:02:44;;;;;;;3.20;1.00;;;;;;;-0.53;72.33;97246.79;218616;1254;139927;-65
2023/12/23 04:07:50;;;;;;;3.60;1.10;;;;;;;-0.55;72.26;97255.78;218479;1254;139868;-67
2023/12/23 04:12:55;;;;;;;1.30;1.00;;;;;;;-0.57;72.52;97262.54;218159;1253;139728;-65
2023/12/23 04:18:00;;;;;;;4.00;1.70;;;;;;;-0.60;72.41;97272.66;218310;1254;140199;-66
2023/12/23 04:23:05;;;;;;;3.70;3.00;;;;;;;-0.64;72.60;97281.54;219696;1254;140903;-66
2023/12/23 04:28:11;;;;;;;3.10;1.30;;;;;;;-0.66;72.55;97289.95;219725;1253;140011;-67
2023/12/23 04:33:16;;;;;;;2.50;0.70;;;;;;;-0.67;72.62;97296.52;218079;1254;141575;-65
2023/12/23 04:38:21;;;;;;;1.60;0.70;;;;;;;-0.67;72.67;97308.39;220409;1253;140432;-65
2023/12/23 04:43:25;;;;;;;2.30;1.20;;;;;;;-0.66;72.65;97323.59;220449;1254;140884;-66
2023/12/23 04:48:30;;;;;;;4.40;0.40;;;;;;;-0.68;72.70;97329.73;220391;1253;139846;-69
2023/12/23 04:53:35;;;;;;;1.50;0.70;;;;;;;-0.68;72.58;97342.90;217854;1254;140331;-69
2023/12/23 04:58:39;;;;;;;2.50;0.80;;;;;;;-0.67;72.72;97353.76;219687;1254;140786;-69
2023/12/23 05:03:45;;;;;;;4.80;0.90;;;;;;;-0.68;72.70;97365.92;219268;1253;140023;-69
2023/12/23 05:08:49;;;;;;;2.00;1.70;;;;;;;-0.71;72.61;97370.14;218669;1253;139814;-68
2023/12/23 05:13:54;;;;;;;3.70;1.70;;;;;;;-0.72;72.46;97382.70;218317;1254;140458;-65
2023/12/23 05:18:59;;;;;;;5.50;2.20;;;;;;;-0.72;73.11;97390.31;219049;1253;140364;-67
2023/12/23 05:24:04;;;;;;;15.50;2.40;;;;;;;-0.73;72.92;97406.50;219940;1254;140778;-64
2023/12/23 05:29:09;;;;;;;6.40;1.00;;;;;;;-0.73;73.00;97404.96;218075;1254;141678;-64
2023/12/23 05:34:13;;;;;;;1.90;1.00;;;;;;;-0.70;72.83;97416.09;218826;1254;140860;-66
2023/12/23 05:39:17;;;;;;;0.90;0.80;;;;;;;-0.70;72.95;97427.35;217780;1253;140090;-66
2023/12/23 05:44:21;;;;;;;1.90;0.60;;;;;;;-0.70;73.08;97434.52;217630;1253;139818;-64
2023/12/23 05:49:27;;;;;;;8.40;2.60;;;;;;;-0.68;73.04;97447.39;217645;1254;139775;-65
2023/12/23 05:54:32;;;;;;;6.20;1.20;;;;;;;-0.66;73.10;97453.36;218141;1256;140993;-66
2023/12/23 05:59:37;;;;;;;3.70;1.00;;;;;;;-0.67;73.03;97464.36;218857;1256;139997;-66
2023/12/23 06:04:40;;;;;;;1.00;0.60;;;;;;;-0.70;73.21;97476.74;218010;1253;139801;-65
2023/12/23 06:09:45;;;;;;;3.20;0.80;;;;;;;-0.72;73.04;97479.54;220164;1254;141085;-65
2023/12/23 06:14:49;;;;;;;0.40;0.40;;;;;;;-0.75;73.29;97487.62;218947;1253;139957;-67
2023/12/23 06:19:53;;;;;;;2.40;0.90;;;;;;;-0.75;73.71;97492.48;219773;1254;141258;-66
2023/12/23 06:24:57;;;;;;;1.10;1.00;;;;;;;-0.76;73.21;97505.45;218175;1254;140220;-64
2023/12/23 06:30:02;;;;;;;0.80;0.80;;;;;;;-0.76;73.28;97509.20;218241;1254;140972;-65
2023/12/23 06:35:06;;;;;;;1.60;1.50;;;;;;;-0.77;73.13;97524.61;220069;1254;141287;-64
2023/12/23 06:40:11;;;;;;;5.50;1.20;;;;;;;-0.78;73.31;97522.94;218949;1254;139412;-65
2023/12/23 06:45:16;;;;;;;3.80;0.90;;;;;;;-0.79;73.41;97522.78;220460;1253;153794;-64
2023/12/23 06:50:20;;;;;;;1.20;0.60;;;;;;;-0.77;73.24;97528.89;218820;1254;141738;-63
2023/12/23 06:55:24;;;;;;;0.60;0.50;;;;;;;-0.76;73.45;97532.54;218448;1254;141218;-63
2023/12/23 07:00:29;;;;;;;0.90;0.80;;;;;;;-0.76;73.77;97526.25;217478;1256;139746;-63
2023/12/23 07:05:33;;;;;;;4.10;1.40;;;;;;;-0.76;73.21;97532.45;218724;1254;140842;-64
2023/12/23 07:10:38;;;;;;;3.00;2.30;;;;;;;-0.75;73.57;97538.65;218706;1254;140088;-63
2023/12/23 07:15:42;;;;;;;4.20;1.70;;;;;;;-0.73;73.38;97533.84;218087;1256;139683;-64
2023/12/23 07:20:47;;;;;;;3.20;1.20;;;;;;;-0.70;73.56;97533.77;218038;1254;139727;-63
2023/12/23 07:25:52;;;;;;;3.00;2.00;;;;;;;-0.64;73.60;97551.48;217787;1256;141677;-63
2023/12/23 07:30:57;;;;;;;3.80;2.00;;;;;;;-0.59;73.67;97559.09;217716;1254;140003;-63
2023/12/23 07:36:03;;;;;;;1.90;1.30;;;;;;;-0.52;73.70;97561.71;217855;1256;139895;-64
2023/12/23 07:41:08;;;;;;;1.80;1.70;;;;;;;-0.41;73.75;97565.55;217555;1254;140346;-67
2023/12/23 07:46:13;;;;;;;2.10;1.20;;;;;;;-0.27;73.96;97572.05;219219;1254;140787;-65
2023/12/23 07:51:21;;;;;;;3.90;1.50;;;;;;;-0.18;73.67;97574.73;217476;1254;141542;-65
2023/12/23 07:56:27;;;;;;;3.30;1.90;;;;;;;-0.01;74.01;97571.50;218194;1254;139432;-64
2023/12/23 08:01:33;;;;;;;1.60;0.80;;;;;;;0.15;74.12;97562.77;218297;1257;139627;-64
2023/12/23 08:06:37;;;;;;;1.70;1.20;;;;;;;0.22;73.71;97561.14;217860;1254;139615;-65
2023/12/23 08:11:41;;;;;;;3.20;1.40;;;;;;;0.28;73.81;97561.77;218280;1259;139817;-65
2023/12/23 08:16:47;;;;;;;1.70;1.00;;;;;;;0.27;73.70;97556.25;219014;1254;140379;-65
2023/12/23 08:21:52;;;;;;;2.90;1.00;;;;;;;0.30;73.63;97557.62;218176;1259;140500;-64
2023/12/23 08:27:00;;;;;;;1.40;1.00;;;;;;;0.43;73.60;97561.79;218644;1254;140103;-64
2023/12/23 08:32:04;;;;;;;4.30;0.80;;;;;;;0.47;73.33;97550.77;219299;1254;140503;-68
2023/12/23 08:37:08;;;;;;;4.70;2.40;;;;;;;0.53;73.52;97555.13;219676;1254;139936;-68
2023/12/23 08:42:13;;;;;;;1.70;0.90;;;;;;;0.62;73.30;97541.19;218660;1254;140207;-68
2023/12/23 08:47:18;;;;;;;2.90;1.20;;;;;;;0.74;73.27;97547.42;219335;1254;140139;-67
2023/12/23 08:52:23;;;;;;;3.40;1.40;;;;;;;0.87;73.22;97559.74;218906;1254;140048;-66
2023/12/23 08:57:28;;;;;;;3.60;1.50;;;;;;;0.93;73.00;97559.66;217873;1254;139692;-64
2023/12/23 09:02:33;;;;;;;1.80;1.70;;;;;;;0.89;72.90;97557.91;217970;1257;139762;-63
2023/12/23 09:07:39;;;;;;;5.90;2.60;;;;;;;0.89;72.99;97568.07;217514;1259;140348;-64
2023/12/23 09:12:44;;;;;;;1.90;1.60;;;;;;;0.88;73.07;97572.88;218311;1255;139934;-64
2023/12/23 09:17:49;;;;;;;2.30;1.50;;;;;;;0.84;72.85;97562.77;218916;1255;140024;-64
2023/12/23 09:22:58;;;;;;;0.70;0.70;;;;;;;0.80;73.01;97559.92;217689;1254;139406;-67
2023/12/23 09:28:07;;;;;;;2.50;0.70;;;;;;;0.88;73.12;97563.04;218149;1258;139636;-65
2023/12/23 09:33:13;;;;;;;3.30;1.00;;;;;;;0.92;73.22;97558.49;219124;1254;140547;-67
2023/12/23 09:38:19;;;;;;;2.50;1.20;;;;;;;1.00;73.20;97549.71;217827;1255;139661;-67
2023/12/23 09:43:25;;;;;;;2.70;2.10;;;;;;;1.08;73.23;97556.25;218740;1254;139766;-66
2023/12/23 09:48:30;;;;;;;2.30;1.40;;;;;;;1.10;73.19;97552.30;219015;1254;139549;-68
2023/12/23 09:53:37;;;;;;;2.70;1.20;;;;;;;1.10;73.17;97543.95;219083;1257;139930;-67
2023/12/23 09:58:44;;;;;;;3.80;1.60;;;;;;;1.12;72.91;97536.13;217743;1254;139549;-68
2023/12/23 10:03:51;;;;;;;3.90;1.10;;;;;;;1.15;73.07;97530.06;218157;1257;140975;-67
2023/12/23 10:09:01;;;;;;;;;;;;;;;1.21;73.08;97531.52;218706;1256;139823;-68
2023/12/23 10:14:07;;;;;;;4.90;1.50;;;;;;;1.23;73.00;97519.41;219427;1254;127207;-67
2023/12/23 10:19:13;;;;;;;3.50;1.00;;;;;;;1.29;73.06;97521.40;218298;1254;140292;-67
2023/12/23 10:24:22;;;;;;;23.50;4.10;;;;;;;1.37;73.10;97505.92;219032;1254;220352;-67
2023/12/23 10:29:33;;;;;;;3.10;0.90;;;;;;;1.52;73.09;97502.00;220478;1254;141337;-68
2023/12/23 10:34:45;;;;;;;6.80;1.90;;;;;;;1.57;73.05;97503.36;220628;1254;140578;-67
2023/12/23 10:39:57;;;;;;;3.50;1.70;;;;;;;1.49;72.97;97494.64;220601;1254;139730;-69
2023/12/23 10:45:04;;;;;;;2.50;1.20;;;;;;;1.61;73.03;97488.25;220342;1254;140427;-68
2023/12/23 10:50:14;;;;;;;6.40;1.70;;;;;;;1.76;73.00;97500.81;218656;1256;139374;-67
2023/12/23 10:55:24;;;;;;;2.50;1.20;;;;;;;2.04;72.96;97503.19;219100;1256;140535;-69
2023/12/23 11:00:29;;;;;;;4.70;1.00;;;;;;;2.12;72.98;97503.02;219334;1256;139943;-71
2023/12/23 11:05:39;;;;;;;8.30;2.20;;;;;;;2.09;72.76;97498.55;219509;1254;140078;-68
2023/12/23 11:10:45;;;;;;;5.90;1.70;;;;;;;2.06;72.62;97498.74;218821;1254;140869;-70
2023/12/23 11:15:51;;;;;;;2.90;2.00;;;;;;;1.98;72.40;97491.61;219071;1256;140285;-68
2023/12/23 11:20:58;;;;;;;8.90;2.50;;;;;;;1.84;72.68;97496.02;218869;1253;139786;-66
2023/12/23 11:26:03;;;;;;;4.20;1.80;;;;;;;1.84;72.91;97494.90;218687;1254;139585;-67
2023/12/23 11:31:09;;;;;;;5.20;2.50;;;;;;;1.86;73.28;97495.58;218888;1254;140640;-66
2023/12/23 11:36:13;;;;;;;4.10;3.00;;;;;;;1.88;73.14;97494.50;219200;1256;140660;-67
2023/12/23 11:41:20;;;;;;;7.40;3.20;;;;;;;1.87;72.86;97498.27;219322;1254;139590;-66
2023/12/23 11:46:27;;;;;;;13.40;2.50;;;;;;;1.85;72.78;97505.33;218401;1257;139838;-65
2023/12/23 11:51:32;;;;;;;7.30;2.00;;;;;;;1.80;72.89;97493.02;218007;1257;140709;-67
2023/12/23 11:56:36;;;;;;;10.80;2.70;;;;;;;1.76;72.71;97496.45;217889;1257;140483;-66
2023/12/23 12:01:41;;;;;;;16.10;4.20;;;;;;;1.72;73.06;97489.86;218373;1257;140067;-64
2023/12/23 12:06:47;;;;;;;3.30;2.40;;;;;;;1.72;73.15;97483.48;218479;1254;140366;-67
2023/12/23 12:11:52;;;;;;;4.90;2.20;;;;;;;1.72;73.20;97496.16;218460;1257;139669;-65
2023/12/23 12:16:58;;;;;;;8.50;2.80;;;;;;;1.74;72.93;97494.83;219614;1254;141323;-65
2023/12/23 12:22:04;;;;;;;6.10;2.00;;;;;;;1.76;73.03;97507.73;218533;1254;139976;-66
2023/12/23 12:27:11;;;;;;;11.00;2.40;;;;;;;1.79;73.08;97505.48;219266;1257;139617;-65
2023/12/23 12:32:21;;;;;;;10.10;2.30;;;;;;;1.82;73.08;97495.15;218061;1260;139672;-66
2023/12/23 12:37:30;;;;;;;4.40;1.70;;;;;;;1.84;73.22;97501.98;219605;1254;139817;-63
2023/12/23 12:42:37;;;;;;;3.70;2.60;;;;;;;1.84;73.42;97512.73;219420;1254;139959;-63
2023/12/23 12:47:44;;;;;;;8.30;2.50;;;;;;;1.81;73.28;97513.05;219996;1254;139968;-63
2023/12/23 12:52:53;;;;;;;6.50;4.80;;;;;;;1.79;73.62;97521.20;218053;1257;139672;-62
2023/12/23 12:57:59;;;;;;;9.00;2.00;;;;;;;1.79;73.79;97538.70;218375;1254;140138;-62
2023/12/23 13:03:05;;;;;;;5.50;2.50;;;;;;;1.75;73.97;97534.94;217625;1257;209907;-61
2023/12/23 13:08:11;;;;;;;13.30;3.10;;;;;;;1.70;73.95;97538.30;218379;1256;139887;-60
2023/12/23 13:13:17;;;;;;;5.00;2.80;;;;;;;1.67;74.15;97538.48;218288;1254;139937;-61
2023/12/23 13:18:26;;;;;;;6.00;2.80;;;;;;;1.65;74.28;97541.81;218044;1255;139770;-61
2023/12/23 13:23:32;;;;;;;5.10;2.20;;;;;;;1.64;74.38;97550.08;217726;1254;141413;-61
2023/12/23 13:28:38;;;;;;;5.90;2.40;;;;;;;1.64;74.44;97547.30;218611;1254;139808;-62
2023/12/23 13:33:44;;;;;;;8.30;2.20;;;;;;;1.63;74.50;97556.20;219973;1254;141377;-62
2023/12/23 13:38:49;;;;;;;3.90;3.30;;;;;;;1.61;74.66;97550.30;219220;1254;141323;-63
2023/12/23 13:43:54;;;;;;;3.80;3.00;;;;;;;1.61;74.82;97558.78;219315;1254;139479;-63
2023/12/23 13:49:00;;;;;;;7.20;2.90;;;;;;;1.60;74.63;97544.38;219033;1254;139730;-63
2023/12/23 13:54:05;;;;;;;5.80;2.40;;;;;;;1.60;74.66;97565.17;218585;1257;140258;-61
2023/12/23 13:59:11;;;;;;;6.00;2.30;;;;;;;1.59;74.64;97586.05;218703;1254;139211;-61
2023/12/23 14:04:21;;;;;;;6.00;3.30;;;;;;;1.57;74.80;97594.09;218733;1256;140534;-61
2023/12/23 14:09:32;;;;;;;5.80;3.30;;;;;;;1.56;75.06;97594.06;218523;1254;139074;-61
2023/12/23 14:14:37;;;;;;;6.90;3.30;;;;;;;1.54;75.31;97597.02;218403;1254;140304;-61
2023/12/23 14:19:42;;;;;;;3.00;2.60;;;;;;;1.52;75.55;97595.48;218468;1254;141775;-61
2023/12/23 14:24:46;;;;;;;7.70;3.50;;;;;;;1.48;75.57;97601.20;219212;1253;140118;-60
2023/12/23 14:29:50;;;;;;;9.40;2.70;;;;;;;1.47;75.72;97607.27;219700;1253;141125;-59
2023/12/23 14:34:55;;;;;;;14.20;3.30;;;;;;;1.46;75.79;97622.01;219713;1254;139949;-60
2023/12/23 14:40:00;;;;;;;4.20;2.50;;;;;;;1.44;75.72;97627.12;219690;1254;140337;-59
2023/12/23 14:45:06;;;;;;;9.40;3.80;;;;;;;1.45;75.64;97628.85;219030;1254;139840;-63
2023/12/23 14:50:11;;;;;;;8.90;3.60;;;;;;;1.45;75.65;97644.36;218828;1256;140307;-63
2023/12/23 14:55:20;;;;;;;10.00;2.50;;;;;;;1.46;76.04;97649.74;219138;1254;140117;-62
2023/12/23 15:00:24;;;;;;;6.40;2.20;;;;;;;1.44;76.11;97653.78;219229;1254;139830;-61
2023/12/23 15:05:29;;;;;;;15.40;6.20;;;;;;;1.43;76.41;97663.20;218984;1252;139673;-62
2023/12/23 15:10:34;;;;;;;6.60;3.80;;;;;;;1.43;76.36;97673.83;220036;1253;140410;-64
2023/12/23 15:15:39;;;;;;;7.60;3.10;;;;;;;1.41;76.61;97687.95;218672;1254;140409;-65
2023/12/23 15:20:44;;;;;;;13.60;4.10;;;;;;;1.40;77.11;97689.42;217649;1254;140067;-63
2023/12/23 15:25:49;;;;;;;8.60;3.20;;;;;;;1.38;77.53;97705.20;218058;1254;139520;-62
2023/12/23 15:30:55;;;;;;;9.40;3.40;;;;;;;1.38;77.47;97729.92;218525;1254;139826;-62
2023/12/23 15:36:00;;;;;;;3.10;2.80;;;;;;;1.31;77.59;97750.85;218894;1254;141604;-63
2023/12/23 15:41:04;;;;;;;8.20;4.70;;;;;;;1.23;78.18;97770.06;218357;1254;393465;-63
2023/12/23 15:46:10;;;;;;;5.40;3.60;;;;;;;1.14;78.59;97777.80;219054;1254;141435;-61
2023/12/23 15:51:15;;;;;;;3.40;2.10;;;;;;;1.04;78.83;97788.88;218043;1254;141127;-62
2023/12/23 15:56:21;;;;;;;4.70;3.10;;;;;;;0.94;79.22;97794.85;217717;1254;140099;-62
2023/12/23 16:01:25;;;;;;;8.70;5.10;;;;;;;0.87;79.79;97798.23;219293;1253;140542;-62
2023/12/23 16:06:32;;;;;;;5.80;3.10;;;;;;;0.81;80.31;97802.29;218566;1255;139806;-62
2023/12/23 16:11:37;;;;;;;;;;;;;;;0.76;80.33;97805.61;218985;1253;139849;-64
2023/12/23 16:16:42;;;;;;;4.90;4.10;;;;;;;0.70;80.75;97811.36;219450;1253;126655;-64
2023/12/23 16:21:48;;;;;;;10.90;4.60;;;;;;;0.67;80.67;97816.67;217872;1254;139670;-65
2023/12/23 16:26:56;;;;;;;3.70;3.10;;;;;;;0.64;81.08;97822.10;219339;1255;140412;-64
2023/12/23 16:32:02;;;;;;;4.80;3.70;;;;;;;0.64;81.38;97822.63;219063;1254;139856;-64
2023/12/23 16:37:08;;;;;;;8.10;2.80;;;;;;;0.69;81.22;97831.38;220155;1254;139576;-64
2023/12/23 16:42:12;;;;;;;6.10;2.80;;;;;;;0.74;81.24;97837.70;220186;1254;140843;-64
2023/12/23 16:47:18;;;;;;;6.30;2.60;;;;;;;0.75;81.08;97850.57;220284;1254;140394;-64
2023/12/23 16:52:24;;;;;;;6.40;2.40;;;;;;;0.74;80.67;97856.02;220246;1254;162471;-64
2023/12/23 16:57:30;;;;;;;11.30;4.90;;;;;;;0.75;80.76;97862.34;218632;1254;139735;-65
2023/12/23 17:02:35;;;;;;;19.60;14.00;;;;;;;0.81;80.94;97867.85;217514;1254;140043;-64
2023/12/23 17:07:40;;;;;;;6.30;4.50;;;;;;;0.83;80.79;97877.27;217392;1255;141139;-64
2023/12/23 17:12:46;;;;;;;5.00;3.70;;;;;;;0.80;80.87;97883.04;218827;1254;139953;-64
2023/12/23 17:17:50;;;;;;;4.30;2.70;;;;;;;0.80;80.83;97897.20;218825;1254;140001;-63
2023/12/23 17:22:55;;;;;;;4.60;2.70;;;;;;;0.78;80.68;97898.88;218588;1254;139989;-63
2023/12/23 17:28:07;;;;;;;9.00;3.90;;;;;;;0.78;80.76;97906.05;218476;1254;140827;-62
2023/12/23 17:33:17;;;;;;;8.80;4.80;;;;;;;0.76;80.89;97911.35;218712;1254;139820;-63
2023/12/23 17:38:23;;;;;;;9.70;3.80;;;;;;;0.73;80.97;97904.77;218408;1256;139655;-63
2023/12/23 17:43:32;;;;;;;7.20;3.10;;;;;;;0.72;81.19;97920.67;218921;1256;139790;-63
2023/12/23 17:48:38;;;;;;;4.60;3.40;;;;;;;0.71;81.00;97920.83;218967;1253;140466;-62
2023/12/23 17:53:44;;;;;;;4.90;3.30;;;;;;;0.73;81.05;97917.07;219746;1253;139599;-62
2023/12/23 17:58:49;;;;;;;10.80;3.40;;;;;;;0.70;80.88;97923.23;218510;1254;236475;-62
2023/12/23 18:03:54;;;;;;;4.80;3.10;;;;;;;0.72;81.09;97940.48;218520;1254;140682;-64
2023/12/23 18:08:58;;;;;;;5.90;3.70;;;;;;;0.73;81.17;97941.36;217965;1256;140415;-62
2023/12/23 18:14:04;;;;;;;4.40;2.60;;;;;;;0.70;81.18;97949.29;217857;1253;141622;-62
2023/12/23 18:19:10;;;;;;;10.20;2.80;;;;;;;0.65;81.22;97956.98;217862;1254;140077;-63
2023/12/23 18:24:15;;;;;;;8.40;3.50;;;;;;;0.62;81.39;97960.69;219128;1253;140462;-63
2023/12/23 18:29:20;;;;;;;6.40;3.20;;;;;;;0.59;81.42;97961.82;219932;1253;139783;-62
2023/12/23 18:34:26;;;;;;;8.30;3.00;;;;;;;0.59;81.38;97971.14;219063;1252;139592;-61
2023/12/23 18:39:33;;;;;;;11.90;3.00;;;;;;;0.56;81.36;97975.48;220597;1253;139566;-62
2023/12/23 18:44:39;;;;;;;6.20;3.50;;;;;;;0.57;81.44;97983.94;219914;1253;139710;-62
2023/12/23 18:49:45;;;;;;;9.30;3.80;;;;;;;0.61;81.43;97983.05;219033;1253;141346;-61
2023/12/23 18:54:50;;;;;;;8.50;3.80;;;;;;;0.65;81.50;97991.73;219426;1253;139806;-63
2023/12/23 18:59:56;;;;;;;6.80;3.90;;;;;;;0.64;81.47;97990.60;219151;1253;140668;-63
2023/12/23 19:05:03;;;;;;;;;;;;;;;0.64;81.39;97997.83;219039;1253;139997;-63
2023/12/23 19:10:07;;;;;;;5.80;3.90;;;;;;;0.63;81.42;98002.66;219672;1254;126912;-63
2023/12/23 19:15:12;;;;;;;12.40;5.00;;;;;;;0.63;81.40;98006.17;218539;1253;139495;-63
2023/12/23 19:20:16;;;;;;;5.90;3.70;;;;;;;0.61;81.53;98015.20;218404;1253;140727;-63
2023/12/23 19:25:24;;;;;;;7.10;3.50;;;;;;;0.59;81.52;98014.10;217947;1253;139651;-62
2023/12/23 19:30:29;;;;;;;10.40;5.00;;;;;;;0.58;81.73;98026.48;219327;1253;139665;-62
2023/12/23 19:35:35;;;;;;;7.80;4.20;;;;;;;0.54;81.69;98039.98;218756;1256;139888;-61
2023/12/23 19:40:41;;;;;;;11.80;4.20;;;;;;;0.55;81.93;98042.27;218102;1254;140706;-63
2023/12/23 19:45:46;;;;;;;7.70;3.60;;;;;;;0.56;81.87;98046.30;219797;1253;140303;-61
2023/12/23 19:50:50;;;;;;;6.50;3.90;;;;;;;0.60;81.80;98056.60;217572;1253;139916;-64
2023/12/23 19:55:55;;;;;;;6.40;4.00;;;;;;;0.59;81.86;98060.12;218782;1253;140489;-64
2023/12/23 20:01:00;;;;;;;5.40;3.10;;;;;;;0.58;81.88;98065.09;218189;1253;140651;-64
2023/12/23 20:06:09;;;;;;;9.40;3.30;;;;;;;0.60;81.96;98072.55;219124;1253;140839;-63
2023/12/23 20:11:26;;;;;;;10.70;4.10;;;;;;;0.61;81.77;98073.36;219196;1256;140218;-63
2023/12/23 20:16:29;;;;;;;9.80;3.50;;;;;;;0.63;82.10;98081.86;219394;1253;140492;-63
2023/12/23 20:21:34;;;;;;;3.80;2.00;;;;;;;0.65;82.10;98085.19;219064;1253;140630;-65
2023/12/23 20:26:39;;;;;;;12.10;3.90;;;;;;;0.68;81.86;98094.50;218930;1253;139777;-66
2023/12/23 20:31:46;;;;;;;21.60;4.00;;;;;;;0.68;81.68;98100.67;219954;1253;140411;-66
2023/12/23 20:36:50;;;;;;;8.40;4.50;;;;;;;0.67;81.66;98094.86;219503;1253;141766;-67
2023/12/23 20:41:57;;;;;;;9.00;3.10;;;;;;;0.69;81.68;98097.64;220511;1253;140644;-68
2023/12/23 20:47:02;;;;;;;7.80;3.60;;;;;;;0.74;81.64;98105.40;220487;1253;140189;-68
2023/12/23 20:52:07;;;;;;;7.40;3.00;;;;;;;0.77;81.50;98101.67;218962;1253;140390;-68
2023/12/23 20:57:13;;;;;;;12.60;3.90;;;;;;;0.75;81.46;98107.73;219485;1253;139826;-66
2023/12/23 21:02:23;;;;;;;4.10;2.70;;;;;;;0.72;81.81;98115.90;218615;1253;140380;-65
2023/12/23 21:07:29;;;;;;;8.70;3.00;;;;;;;0.71;81.63;98127.27;218337;1256;140578;-65
2023/12/23 21:12:35;;;;;;;5.70;3.10;;;;;;;0.69;81.50;98133.83;218610;1253;140270;-63
2023/12/23 21:17:41;;;;;;;12.10;4.80;;;;;;;0.67;81.72;98142.35;218851;1253;142333;-64
2023/12/23 21:22:52;;;;;;;7.40;3.80;;;;;;;0.67;81.76;98143.84;218788;1256;140441;-64
2023/12/23 21:27:57;;;;;;;5.20;3.10;;;;;;;0.70;81.80;98141.45;218616;1253;139357;-63
2023/12/23 21:33:04;;;;;;;8.30;3.40;;;;;;;0.66;81.76;98149.41;217961;1254;140279;-64
2023/12/23 21:38:11;;;;;;;4.80;3.70;;;;;;;0.64;81.80;98153.11;218455;1253;140164;-63
2023/12/23 21:43:17;;;;;;;10.90;5.30;;;;;;;0.62;81.71;98158.91;218538;1254;139639;-63
2023/12/23 21:48:24;;;;;;;9.20;3.30;;;;;;;0.60;81.70;98163.75;219245;1254;140715;-64
2023/12/23 21:53:30;;;;;;;5.50;3.90;;;;;;;0.60;81.70;98165.32;218744;1254;139417;-64
2023/12/23 21:58:37;;;;;;;11.30;4.00;;;;;;;0.60;81.94;98167.67;218405;1254;139611;-64
2023/12/23 22:03:42;;;;;;;3.60;3.00;;;;;;;0.59;82.00;98166.89;218881;1253;140612;-64
2023/12/23 22:08:53;;;;;;;2.60;2.20;;;;;;;0.60;81.86;98162.70;219386;1253;141308;-65
2023/12/23 22:13:58;;;;;;;11.50;3.30;;;;;;;0.58;81.86;98165.58;218248;1254;151392;-65
2023/12/23 22:19:04;;;;;;;4.40;3.10;;;;;;;0.59;82.01;98164.48;219833;1253;140647;-65
2023/12/23 22:24:09;;;;;;;5.90;3.00;;;;;;;0.60;82.16;98168.55;218062;1254;141510;-65
2023/12/23 22:29:13;;;;;;;11.30;4.40;;;;;;;0.61;82.05;98170.47;219477;1254;139720;-65
2023/12/23 22:34:19;;;;;;;5.50;2.50;;;;;;;0.61;82.21;98178.55;218383;1253;140683;-66
2023/12/23 22:39:24;;;;;;;10.80;4.90;;;;;;;0.59;81.86;98180.86;220247;1254;139897;-64
2023/12/23 22:44:29;;;;;;;8.50;4.30;;;;;;;0.56;82.15;98183.33;220439;1253;139916;-65
2023/12/23 22:49:34;;;;;;;10.20;5.90;;;;;;;0.60;82.23;98193.36;219749;1254;140780;-65
2023/12/23 22:54:38;;;;;;;6.30;3.80;;;;;;;0.64;82.40;98196.71;220405;1254;139821;-66
2023/12/23 22:59:42;;;;;;;6.10;2.70;;;;;;;0.69;82.31;98201.73;220083;1254;140967;-66
2023/12/23 23:04:47;;;;;;;10.90;3.30;;;;;;;0.72;82.21;98215.52;219762;1254;140690;-64
2023/12/23 23:09:52;;;;;;;4.10;3.50;;;;;;;0.71;82.23;98217.82;219174;1253;140688;-65
2023/12/23 23:14:56;;;;;;;5.30;4.00;;;;;;;0.73;82.24;98218.67;219484;1253;139565;-66
2023/12/23 23:20:01;;;;;;;2.80;2.20;;;;;;;0.73;82.48;98226.98;219186;1254;139990;-65
2023/12/23 23:25:07;;;;;;;5.30;3.10;;;;;;;0.75;82.65;98229.51;218581;1253;139861;-63
2023/12/23 23:30:12;;;;;;;4.80;2.60;;;;;;;0.76;82.66;98223.82;218467;1253;139662;-62
2023/12/23 23:35:17;;;;;;;3.00;2.80;;;;;;;0.75;82.55;98212.80;219712;1254;140198;-62
2023/12/23 23:40:23;;;;;;;15.40;4.00;;;;;;;0.74;82.75;98220.27;218556;1256;221780;-63